createdAt,value
2023-04-12T00:00:21.291Z,28.50
2023-04-12T00:02:54.423Z,30.50
2023-04-12T00:05:27.465Z,33.63
2023-04-12T00:07:56.426Z,22.67
2023-04-12T00:10:26.204Z,22.53
2023-04-12T00:12:54.963Z,23.33
2023-04-12T00:15:23.712Z,18.77
2023-04-12T00:17:52.486Z,20.13
2023-04-12T00:20:21.338Z,24.30
2023-04-12T00:22:52.085Z,31.20
2023-04-12T00:25:21.067Z,44.13
2023-04-12T00:27:49.883Z,50.87
2023-04-12T00:30:18.750Z,38.87
2023-04-12T00:32:47.521Z,28.53
2023-04-12T00:35:16.209Z,19.30
2023-04-12T00:38:12.650Z,17.27
2023-04-12T00:40:43.793Z,14.43
2023-04-12T00:43:15.640Z,13.67
2023-04-12T00:45:44.895Z,13.03
2023-04-12T00:48:13.940Z,11.17
2023-04-12T00:50:44.825Z,10.17
2023-04-12T00:53:17.772Z,8.40
2023-04-12T00:55:47.667Z,10.43
2023-04-12T00:58:16.605Z,8.93
2023-04-12T01:00:50.431Z,7.90
2023-04-12T01:03:23.178Z,9.67
2023-04-12T01:06:10.656Z,8.47
2023-04-12T01:08:55.253Z,6.80
2023-04-12T01:11:33.858Z,7.77
2023-04-12T01:14:12.794Z,7.00
2023-04-12T01:16:51.216Z,4.53
2023-04-12T01:19:57.862Z,6.90
2023-04-12T01:23:00.815Z,7.60
2023-04-12T01:25:46.011Z,4.73
2023-04-12T01:28:23.835Z,5.40
2023-04-12T01:30:53.829Z,5.23
2023-04-12T01:33:31.352Z,8.40
2023-04-12T01:36:04.493Z,5.40
2023-04-12T01:38:36.189Z,6.53
2023-04-12T01:41:08.531Z,5.07
2023-04-12T01:43:44.044Z,7.40
2023-04-12T01:46:15.075Z,5.70
2023-04-12T01:48:51.335Z,4.63
2023-04-12T01:51:33.033Z,7.07
2023-04-12T01:54:11.734Z,3.80
2023-04-12T01:56:44.982Z,5.77
2023-04-12T01:59:18.703Z,4.60
2023-04-12T02:01:49.012Z,4.37
2023-04-12T02:04:19.769Z,5.50
2023-04-12T02:06:49.861Z,6.03
2023-04-12T02:09:18.559Z,5.57
2023-04-12T02:11:49.847Z,6.67
2023-04-12T02:14:20.385Z,7.53
2023-04-12T02:16:50.841Z,3.97
2023-04-12T02:19:20.338Z,5.27
2023-04-12T02:21:50.010Z,5.83
2023-04-12T02:24:18.985Z,7.37
2023-04-12T02:26:49.801Z,5.97
2023-04-12T02:29:19.951Z,3.60
2023-04-12T02:31:50.075Z,4.37
2023-04-12T02:34:19.510Z,6.50
2023-04-12T02:36:53.854Z,4.67
2023-04-12T02:39:23.509Z,8.23
2023-04-12T02:41:54.131Z,8.57
2023-04-12T02:44:24.490Z,5.87
2023-04-12T02:47:12.401Z,4.50
2023-04-12T02:49:43.539Z,5.10
2023-04-12T02:52:15.137Z,3.73
2023-04-12T02:54:59.566Z,5.40
2023-04-12T02:57:28.896Z,5.90
2023-04-12T03:00:00.211Z,5.27
2023-04-12T03:02:41.389Z,4.17
2023-04-12T03:05:17.750Z,8.23
2023-04-12T03:07:47.355Z,4.87
2023-04-12T03:10:18.781Z,3.63
2023-04-12T03:12:54.656Z,6.00
2023-04-12T03:15:24.944Z,4.83
2023-04-12T03:17:55.015Z,4.20
2023-04-12T03:20:29.880Z,5.53
2023-04-12T03:23:11.582Z,6.20
2023-04-12T03:25:46.773Z,5.40
2023-04-12T03:28:33.899Z,3.57
2023-04-12T03:31:07.319Z,5.67
2023-04-12T03:33:41.914Z,4.67
2023-04-12T03:36:21.730Z,4.97
2023-04-12T03:38:55.950Z,5.00
2023-04-12T03:41:25.209Z,5.73
2023-04-12T03:43:56.244Z,4.67
2023-04-12T03:46:26.847Z,5.77
2023-04-12T03:48:59.505Z,5.30
2023-04-12T03:51:30.769Z,4.17
2023-04-12T03:54:06.071Z,8.17
2023-04-12T03:56:46.358Z,4.80
2023-04-12T03:59:23.861Z,4.47
2023-04-12T04:02:38.580Z,6.23
2023-04-12T04:11:23.393Z,3.33
2023-04-12T04:14:02.332Z,4.33
2023-04-12T04:16:31.789Z,5.97
2023-04-12T04:19:04.270Z,3.53
2023-04-12T04:21:33.110Z,6.63
2023-04-12T04:24:04.237Z,4.00
2023-04-12T04:26:38.381Z,5.90
2023-04-12T04:29:18.404Z,4.67
2023-04-12T04:31:47.515Z,5.40
2023-04-12T04:34:19.793Z,4.40
2023-04-12T04:36:50.594Z,3.97
2023-04-12T04:39:27.480Z,4.80
2023-04-12T04:41:58.191Z,4.13
2023-04-12T04:44:40.475Z,4.30
2023-04-12T04:47:12.001Z,4.20
2023-04-12T04:49:43.394Z,5.47
2023-04-12T04:52:24.063Z,6.33
2023-04-12T04:54:57.907Z,6.63
2023-04-12T04:57:32.335Z,6.23
2023-04-12T05:00:11.125Z,5.10
2023-04-12T05:02:43.839Z,7.10
2023-04-12T05:05:23.516Z,5.93
2023-04-12T05:07:58.323Z,6.07
2023-04-12T05:10:30.611Z,5.67
2023-04-12T05:13:03.455Z,6.30
2023-04-12T05:15:33.608Z,4.30
2023-04-12T05:18:02.442Z,4.90
2023-04-12T05:20:33.721Z,5.13
2023-04-12T05:23:03.070Z,4.87
2023-04-12T05:25:33.187Z,6.57
2023-04-12T05:28:14.260Z,6.40
2023-04-12T05:30:44.069Z,7.00
2023-04-12T05:33:16.849Z,5.63
2023-04-12T05:35:49.728Z,8.17
2023-04-12T05:38:21.684Z,5.30
2023-04-12T05:40:55.420Z,5.33
2023-04-12T05:43:28.993Z,5.80
2023-04-12T05:46:00.828Z,5.90
2023-04-12T05:48:32.733Z,5.73
2023-04-12T05:51:06.249Z,7.23
2023-04-12T05:53:35.685Z,6.07
2023-04-12T05:56:08.068Z,6.40
2023-04-12T05:58:55.362Z,6.00
2023-04-12T06:01:32.346Z,5.80
2023-04-12T06:04:06.344Z,5.60
2023-04-12T06:06:36.966Z,5.37
2023-04-12T06:09:06.129Z,5.87
2023-04-12T06:11:34.962Z,6.40
2023-04-12T06:14:04.504Z,4.10
2023-04-12T06:16:33.545Z,6.97
2023-04-12T06:19:02.519Z,4.60
2023-04-12T06:21:31.340Z,7.17
2023-04-12T06:24:01.585Z,5.33
2023-04-12T06:26:39.028Z,4.90
2023-04-12T06:29:09.234Z,5.73
2023-04-12T06:31:38.584Z,8.47
2023-04-12T06:34:08.898Z,10.20
2023-04-12T06:36:41.592Z,6.00
2023-04-12T06:39:12.225Z,11.93
2023-04-12T06:41:43.616Z,9.87
2023-04-12T06:44:12.381Z,24.80
2023-04-12T06:46:41.251Z,15.87
2023-04-12T06:49:10.042Z,13.17
2023-04-12T06:51:39.032Z,11.13
2023-04-12T06:54:11.308Z,21.73
2023-04-12T06:56:41.112Z,59.07
2023-04-12T06:59:10.274Z,20.87
2023-04-12T07:01:40.395Z,26.20
2023-04-12T07:04:10.209Z,5.87
2023-04-12T07:06:39.139Z,92.93
2023-04-12T07:09:07.930Z,61.23
2023-04-12T07:11:38.094Z,72.90
2023-04-12T07:14:06.881Z,96.23
2023-04-12T07:16:35.669Z,40.60
2023-04-12T07:19:04.426Z,86.53
2023-04-12T07:21:33.207Z,26.87
2023-04-12T07:24:01.998Z,62.60
2023-04-12T07:26:31.457Z,16.63
2023-04-12T07:29:01.765Z,56.37
2023-04-12T07:31:31.599Z,11.17
2023-04-12T07:34:00.508Z,10.03
2023-04-12T07:36:29.287Z,2.07
2023-04-12T07:38:58.338Z,10.60
2023-04-12T07:41:27.218Z,8.97
2023-04-12T07:43:56.012Z,3.03
2023-04-12T07:46:26.320Z,3.80
2023-04-12T07:48:55.339Z,6.60
2023-04-12T07:51:24.296Z,4.97
2023-04-12T07:53:53.090Z,3.47
2023-04-12T07:56:21.885Z,3.40
2023-04-12T07:58:50.886Z,4.00
2023-04-12T08:01:19.656Z,6.93
2023-04-12T08:03:50.234Z,4.10
2023-04-12T08:06:19.121Z,5.23
2023-04-12T08:08:47.940Z,4.10
2023-04-12T08:11:16.762Z,4.13
2023-04-12T08:13:45.529Z,4.07
2023-04-12T08:16:14.285Z,5.17
2023-04-12T08:18:43.051Z,6.80
2023-04-12T08:21:13.203Z,5.57
2023-04-12T08:23:42.036Z,4.23
2023-04-12T08:26:11.079Z,7.27
2023-04-12T08:28:40.032Z,4.90
2023-04-12T08:31:09.499Z,2.90
2023-04-12T08:33:38.313Z,4.93
2023-04-12T08:36:08.420Z,4.67
2023-04-12T08:38:45.518Z,3.77
2023-04-12T08:41:15.559Z,5.23
2023-04-12T08:43:47.573Z,3.97
2023-04-12T08:46:18.369Z,6.10
2023-04-12T08:48:49.981Z,4.10
2023-04-12T08:51:21.330Z,3.60
2023-04-12T08:53:54.152Z,3.73
2023-04-12T08:56:25.161Z,3.33
2023-04-12T08:58:55.121Z,4.60
2023-04-12T09:01:23.951Z,6.20
2023-04-12T09:03:52.863Z,4.97
2023-04-12T09:06:22.051Z,2.77
2023-04-12T09:08:55.647Z,5.13
2023-04-12T09:11:27.211Z,6.47
2023-04-12T09:13:59.852Z,8.20
2023-04-12T09:16:37.846Z,4.03
2023-04-12T09:19:06.842Z,4.80
2023-04-12T09:21:37.129Z,5.13
2023-04-12T09:24:13.965Z,5.00
2023-04-12T09:26:43.807Z,5.30
2023-04-12T09:29:26.319Z,3.10
2023-04-12T09:32:02.653Z,4.97
2023-04-12T09:34:35.120Z,3.20
2023-04-12T09:37:14.891Z,4.83
2023-04-12T09:39:45.500Z,3.73
2023-04-12T09:42:32.391Z,5.07
2023-04-12T09:45:19.613Z,3.80
2023-04-12T09:47:48.917Z,2.33
2023-04-12T09:50:23.481Z,4.73
2023-04-12T09:52:52.761Z,6.13
2023-04-12T09:55:25.552Z,2.17
2023-04-12T09:57:56.637Z,3.33
2023-04-12T10:00:27.317Z,4.33
2023-04-12T10:02:58.029Z,4.83
2023-04-12T10:05:28.138Z,2.87
2023-04-12T10:08:02.089Z,4.13
2023-04-12T10:10:34.091Z,2.67
2023-04-12T10:13:03.560Z,4.27
2023-04-12T10:15:36.197Z,3.50
2023-04-12T10:18:11.499Z,3.03
2023-04-12T10:20:42.781Z,4.30
2023-04-12T10:23:16.422Z,5.03
2023-04-12T10:25:49.569Z,5.67
2023-04-12T10:28:21.815Z,5.30
2023-04-12T10:30:53.387Z,5.80
2023-04-12T10:33:28.162Z,4.77
2023-04-12T10:36:03.094Z,4.20
2023-04-12T10:38:45.878Z,2.77
2023-04-12T10:41:19.003Z,3.53
2023-04-12T10:43:48.725Z,3.50
2023-04-12T10:46:51.788Z,3.87
2023-04-12T10:49:21.169Z,3.77
2023-04-12T10:52:20.012Z,6.43
2023-04-12T10:54:48.864Z,6.70
2023-04-12T10:57:47.356Z,4.17
2023-04-12T11:00:17.767Z,5.57
2023-04-12T11:03:12.659Z,5.00
2023-04-12T11:06:20.033Z,5.80
2023-04-12T11:09:27.365Z,5.53
2023-04-12T11:12:13.668Z,5.10
2023-04-12T11:14:48.327Z,6.30
2023-04-12T11:17:26.120Z,4.93
2023-04-12T11:20:01.889Z,6.53
2023-04-12T11:22:33.863Z,4.00
2023-04-12T11:25:04.962Z,4.27
2023-04-12T11:27:34.611Z,8.17
2023-04-12T11:30:05.438Z,6.13
2023-04-12T11:32:41.536Z,6.53
2023-04-12T11:35:11.066Z,4.83
2023-04-12T11:37:40.779Z,6.40
2023-04-12T11:40:11.937Z,6.37
2023-04-12T11:42:42.087Z,7.50
2023-04-12T11:45:17.860Z,5.90
2023-04-12T11:47:48.229Z,4.63
2023-04-12T11:50:31.375Z,4.33
2023-04-12T11:53:13.218Z,5.87
2023-04-12T11:55:42.559Z,4.23
2023-04-12T11:58:11.333Z,4.30
2023-04-12T12:00:45.040Z,3.47
2023-04-12T12:03:14.418Z,5.27
2023-04-12T12:05:44.616Z,4.83
2023-04-12T12:08:14.692Z,6.20
2023-04-12T12:10:59.733Z,5.30
2023-04-12T12:13:46.996Z,4.20
2023-04-12T12:16:18.808Z,5.60
2023-04-12T12:18:52.541Z,3.07
2023-04-12T12:21:22.077Z,4.93
2023-04-12T12:23:51.531Z,4.10
2023-04-12T12:26:26.005Z,3.53
2023-04-12T12:28:57.410Z,5.77
2023-04-12T12:31:29.356Z,4.27
2023-04-12T12:34:01.122Z,4.10
2023-04-12T12:36:34.645Z,3.93
2023-04-12T12:39:10.680Z,3.90
2023-04-12T12:41:40.766Z,5.53
2023-04-12T12:44:11.408Z,4.80
2023-04-12T12:49:16.000Z,3.70
2023-04-12T12:51:45.741Z,4.90
2023-04-12T12:54:25.044Z,4.33
2023-04-12T12:57:05.951Z,2.80
2023-04-12T12:59:35.188Z,3.27
2023-04-12T13:02:07.908Z,3.27
2023-04-12T13:04:37.096Z,2.40
2023-04-12T13:07:06.076Z,5.37
2023-04-12T13:09:36.099Z,3.50
2023-04-12T13:12:05.428Z,2.90
2023-04-12T13:14:34.523Z,4.03
2023-04-12T13:17:08.923Z,3.60
2023-04-12T13:19:37.618Z,5.30
2023-04-12T13:22:07.429Z,5.00
2023-04-12T13:24:37.475Z,1.87
2023-04-12T13:27:06.426Z,3.27
2023-04-12T13:29:35.676Z,3.50
2023-04-12T13:32:04.958Z,3.27
2023-04-12T13:34:35.439Z,5.10
2023-04-12T13:37:04.251Z,5.97
2023-04-12T13:39:34.574Z,1.87
2023-04-12T13:42:05.773Z,4.90
2023-04-12T13:44:34.566Z,1.80
2023-04-12T13:47:03.501Z,2.83
2023-04-12T13:49:32.464Z,2.47
2023-04-12T13:52:04.572Z,3.30
2023-04-12T13:54:33.456Z,5.57
2023-04-12T13:57:04.151Z,3.70
2023-04-12T13:59:33.139Z,3.80
2023-04-12T14:02:02.976Z,8.30
2023-04-12T14:04:33.127Z,4.27
2023-04-12T14:07:03.397Z,4.33
2023-04-12T14:09:33.982Z,3.80
2023-04-12T14:12:03.058Z,4.10
2023-04-12T14:14:31.749Z,3.37
2023-04-12T14:17:02.107Z,3.73
2023-04-12T14:19:34.948Z,3.13
2023-04-12T14:22:05.336Z,4.37
2023-04-12T14:24:40.385Z,5.60
2023-04-12T14:27:15.377Z,10.07
2023-04-12T14:29:46.298Z,4.00
2023-04-12T14:32:16.285Z,5.30
2023-04-12T14:34:46.541Z,5.57
2023-04-12T14:37:16.850Z,7.30
2023-04-12T14:39:51.739Z,3.93
2023-04-12T14:42:26.206Z,4.47
2023-04-12T14:44:57.521Z,6.13
2023-04-12T14:47:27.914Z,5.07
2023-04-12T14:49:57.177Z,4.43
2023-04-12T14:52:32.533Z,3.10
2023-04-12T14:55:02.085Z,4.90
2023-04-12T14:57:30.916Z,6.27
2023-04-12T15:00:00.391Z,9.90
2023-04-12T15:02:29.708Z,3.70
2023-04-12T15:05:05.129Z,4.33
2023-04-12T15:07:37.117Z,6.57
2023-04-12T15:10:14.217Z,5.10
2023-04-12T15:12:43.495Z,5.67
2023-04-12T15:15:14.421Z,4.53
2023-04-12T15:17:48.956Z,4.37
2023-04-12T15:20:33.910Z,5.20
2023-04-12T15:23:13.435Z,5.37
2023-04-12T15:25:42.780Z,4.20
2023-04-12T15:28:12.103Z,2.63
2023-04-12T15:30:41.974Z,3.37
2023-04-12T15:33:13.010Z,4.23
2023-04-12T15:35:43.186Z,3.07
2023-04-12T15:38:15.591Z,2.70
2023-04-12T15:40:48.045Z,3.07
2023-04-12T15:43:16.955Z,5.27
2023-04-12T15:45:45.859Z,2.33
2023-04-12T15:48:21.009Z,3.27
2023-04-12T15:51:03.946Z,2.80
2023-04-12T15:54:00.174Z,3.13
2023-04-12T15:56:31.502Z,3.17
2023-04-12T15:59:01.246Z,2.33
2023-04-12T16:01:31.535Z,3.23
2023-04-12T16:04:00.633Z,3.07
2023-04-12T16:06:34.766Z,3.00
2023-04-12T16:09:06.853Z,4.10
2023-04-12T16:11:35.774Z,3.40
2023-04-12T16:14:04.543Z,4.43
2023-04-12T16:16:33.721Z,3.63
2023-04-12T16:19:02.843Z,3.73
2023-04-12T16:21:31.641Z,2.67
2023-04-12T16:24:00.856Z,3.03
2023-04-12T16:26:32.389Z,2.40
2023-04-12T16:29:02.142Z,2.73
2023-04-12T16:31:32.021Z,3.90
2023-04-12T16:34:01.346Z,4.40
2023-04-12T16:36:31.490Z,4.43
2023-04-12T16:39:03.539Z,6.13
2023-04-12T16:41:42.733Z,5.97
2023-04-12T16:44:42.854Z,2.80
2023-04-12T16:47:11.796Z,6.87
2023-04-12T16:51:01.390Z,4.13
2023-04-12T16:53:30.475Z,2.83
2023-04-12T16:56:09.989Z,4.37
2023-04-12T16:58:41.676Z,3.17
2023-04-12T17:01:19.367Z,2.80
2023-04-12T17:03:49.582Z,5.30
2023-04-12T17:06:19.588Z,3.03
2023-04-12T17:08:50.373Z,4.13
2023-04-12T17:11:19.302Z,3.20
2023-04-12T17:13:52.651Z,3.53
2023-04-12T17:16:22.563Z,6.60
2023-04-12T17:18:51.431Z,38.90
2023-04-12T17:21:22.553Z,25.47
2023-04-12T17:23:53.585Z,57.87
2023-04-12T17:26:26.463Z,44.20
2023-04-12T17:28:58.800Z,38.67
2023-04-12T17:31:29.015Z,52.80
2023-04-12T17:33:58.214Z,12.17
2023-04-12T17:36:32.671Z,82.20
2023-04-12T17:39:04.847Z,22.30
2023-04-12T17:41:33.782Z,26.27
2023-04-12T17:44:04.056Z,7.07
2023-04-12T17:46:34.840Z,7.17
2023-04-12T17:49:05.792Z,5.67
2023-04-12T17:51:35.310Z,3.20
2023-04-12T17:54:07.964Z,6.27
2023-04-12T17:56:37.020Z,4.87
2023-04-12T17:59:11.460Z,3.97
2023-04-12T18:01:41.922Z,5.93
2023-04-12T18:04:11.306Z,5.40
2023-04-12T18:06:42.029Z,11.73
2023-04-12T18:09:12.733Z,4.07
2023-04-12T18:11:43.455Z,5.87
2023-04-12T18:14:16.085Z,3.20
2023-04-12T18:16:45.996Z,4.40
2023-04-12T18:19:19.141Z,3.57
2023-04-12T18:21:49.551Z,4.50
2023-04-12T18:24:18.516Z,4.47
2023-04-12T18:26:49.601Z,3.37
2023-04-12T18:29:25.479Z,3.30
2023-04-12T18:32:16.448Z,4.17
2023-04-12T18:34:45.759Z,4.17
2023-04-12T18:37:14.668Z,3.27
2023-04-12T18:39:43.469Z,3.93
2023-04-12T18:42:17.337Z,3.67
2023-04-12T18:44:48.506Z,3.67
2023-04-12T18:47:17.749Z,4.70
2023-04-12T18:50:14.129Z,3.10
2023-04-12T18:52:42.997Z,4.33
2023-04-12T18:55:12.617Z,3.60
2023-04-12T18:57:41.564Z,3.40
2023-04-12T19:00:14.711Z,3.73
2023-04-12T19:02:43.887Z,3.77
2023-04-12T19:05:15.066Z,5.20
2023-04-12T19:07:45.012Z,3.70
2023-04-12T19:10:17.657Z,3.13
2023-04-12T19:12:47.755Z,4.33
2023-04-12T19:15:17.968Z,3.10
2023-04-12T19:17:49.510Z,5.07
2023-04-12T19:20:20.051Z,4.67
2023-04-12T19:22:54.905Z,3.60
2023-04-12T19:25:29.823Z,4.07
2023-04-12T19:28:26.937Z,4.43
2023-04-12T19:31:12.309Z,3.80
2023-04-12T19:33:42.661Z,3.70
2023-04-12T19:36:12.348Z,6.93
2023-04-12T19:38:44.392Z,4.67
2023-04-12T19:41:14.280Z,6.73
2023-04-12T19:43:44.181Z,8.07
2023-04-12T19:46:21.858Z,4.67
2023-04-12T19:48:54.912Z,4.93
2023-04-12T19:51:27.585Z,4.70
2023-04-12T19:53:59.529Z,5.40
2023-04-12T19:56:30.053Z,5.83
2023-04-12T19:59:00.477Z,4.67
2023-04-12T20:01:31.841Z,4.93
2023-04-12T20:04:06.003Z,4.53
2023-04-12T20:06:35.699Z,5.77
2023-04-12T20:09:08.265Z,4.57
2023-04-12T20:11:38.380Z,4.70
2023-04-12T20:14:09.857Z,4.90
2023-04-12T20:16:43.986Z,5.40
2023-04-12T20:19:13.582Z,7.17
2023-04-12T20:21:44.351Z,6.47
2023-04-12T20:24:13.827Z,5.07
2023-04-12T20:26:46.779Z,4.63
2023-04-12T20:29:17.808Z,5.30
2023-04-12T20:31:48.336Z,4.67
2023-04-12T20:34:17.758Z,5.97
2023-04-12T20:36:46.715Z,5.87
2023-04-12T20:39:15.421Z,6.50
2023-04-12T20:41:50.070Z,4.90
2023-04-12T20:44:20.586Z,7.23
2023-04-12T20:46:51.162Z,5.87
2023-04-12T20:49:20.673Z,4.70
2023-04-12T20:51:50.033Z,5.37
2023-04-12T20:54:19.907Z,4.60
2023-04-12T20:56:48.699Z,6.03
2023-04-12T20:59:17.589Z,4.83
2023-04-12T21:01:49.897Z,5.30
2023-04-12T21:04:20.270Z,5.57
2023-04-12T21:06:50.620Z,5.37
2023-04-12T21:09:19.491Z,5.30
2023-04-12T21:11:49.134Z,7.07
2023-04-12T21:14:18.272Z,5.07
2023-04-12T21:16:48.977Z,5.57
2023-04-12T21:19:19.739Z,5.17
2023-04-12T21:21:50.825Z,5.33
2023-04-12T21:24:20.274Z,6.40
2023-04-12T21:26:57.729Z,6.43
2023-04-12T21:29:26.952Z,5.40
2023-04-12T21:31:56.398Z,5.60
2023-04-12T21:34:26.854Z,6.27
2023-04-12T21:36:57.503Z,5.83
2023-04-12T21:39:27.201Z,6.57
2023-04-12T21:41:58.160Z,7.33
2023-04-12T21:44:27.447Z,7.07
2023-04-12T21:46:56.847Z,6.90
2023-04-12T21:49:30.226Z,7.87
2023-04-12T21:51:59.556Z,7.53
2023-04-12T21:54:31.447Z,9.03
2023-04-12T21:57:03.765Z,6.93
2023-04-12T21:59:33.299Z,8.07
2023-04-12T22:02:02.272Z,7.10
2023-04-12T22:04:33.134Z,7.30
2023-04-12T22:07:05.428Z,8.73
2023-04-12T22:09:36.015Z,6.67
2023-04-12T22:12:06.674Z,7.40
2023-04-12T22:14:36.682Z,6.77
2023-04-12T22:17:06.910Z,7.80
2023-04-12T22:19:37.571Z,7.93
2023-04-12T22:22:08.493Z,8.60
2023-04-12T22:24:38.820Z,8.43
2023-04-12T22:27:09.438Z,6.90
2023-04-12T22:29:38.960Z,6.03
2023-04-12T22:32:09.686Z,7.43
2023-04-12T22:34:40.504Z,7.10
2023-04-12T22:37:09.789Z,8.10
2023-04-12T22:39:40.298Z,6.23
2023-04-12T22:42:09.779Z,7.67
2023-04-12T22:44:39.373Z,7.17
2023-04-12T22:47:09.083Z,12.20
2023-04-12T22:49:50.582Z,10.93
2023-04-12T22:52:20.134Z,7.43
2023-04-12T22:54:50.091Z,6.13
2023-04-12T22:57:21.463Z,6.60
2023-04-12T22:59:50.512Z,6.07
2023-04-12T23:02:19.880Z,4.77
2023-04-12T23:04:50.571Z,5.07
2023-04-12T23:07:19.851Z,6.33
2023-04-12T23:09:52.808Z,7.60
2023-04-12T23:12:22.808Z,4.87
2023-04-12T23:14:55.720Z,6.70
2023-04-12T23:17:26.902Z,4.70
2023-04-12T23:19:58.316Z,5.00
2023-04-12T23:22:55.802Z,5.07
2023-04-12T23:25:38.134Z,4.63
2023-04-12T23:28:12.947Z,4.17
2023-04-12T23:30:47.954Z,5.70
2023-04-12T23:33:22.629Z,3.37
2023-04-12T23:35:56.052Z,4.17
2023-04-12T23:38:27.330Z,3.83
2023-04-12T23:40:56.628Z,3.87
2023-04-12T23:43:26.941Z,3.47
2023-04-12T23:45:57.329Z,3.63
2023-04-12T23:48:27.196Z,3.47
2023-04-12T23:50:57.386Z,3.33
2023-04-12T23:53:26.697Z,4.77
2023-04-12T23:55:55.663Z,4.47
2023-04-12T23:58:25.550Z,3.43
